sensor_id;sensor_type;location;lat;lon;timestamp;pressure;altitude;pressure_sealevel;temperature;humidity
74958;BME280;63741;42.624;26.276;2023-07-13T00:00:11;99778.19;;;25.87;59.19
74958;BME280;63741;42.624;26.276;2023-07-13T00:02:42;99775.72;;;25.66;59.95
74958;BME280;63741;42.624;26.276;2023-07-13T00:05:09;99779.06;;;25.81;59.42
74958;BME280;63741;42.624;26.276;2023-07-13T00:07:36;99771.63;;;25.50;60.59
74958;BME280;63741;42.624;26.276;2023-07-13T00:10:04;99763.19;;;25.71;60.18
74958;BME280;63741;42.624;26.276;2023-07-13T00:12:35;99767.22;;;26.07;58.59
74958;BME280;63741;42.624;26.276;2023-07-13T00:15:16;99770.59;;;26.03;58.59
74958;BME280;63741;42.624;26.276;2023-07-13T00:17:43;99768.34;;;25.93;59.41
74958;BME280;63741;42.624;26.276;2023-07-13T00:20:14;99762.63;;;26.14;58.67
74958;BME280;63741;42.624;26.276;2023-07-13T00:22:41;99750.78;;;26.02;59.04
74958;BME280;63741;42.624;26.276;2023-07-13T00:25:10;99757.94;;;26.28;58.28
74958;BME280;63741;42.624;26.276;2023-07-13T00:27:37;99760.78;;;26.08;58.73
74958;BME280;63741;42.624;26.276;2023-07-13T00:30:05;99754.47;;;26.21;58.10
74958;BME280;63741;42.624;26.276;2023-07-13T00:32:33;99768.28;;;26.06;58.55
74958;BME280;63741;42.624;26.276;2023-07-13T00:35:00;99758.28;;;26.07;58.45
74958;BME280;63741;42.624;26.276;2023-07-13T00:37:27;99749.94;;;26.08;58.59
74958;BME280;63741;42.624;26.276;2023-07-13T00:39:56;99754.72;;;25.55;60.00
74958;BME280;63741;42.624;26.276;2023-07-13T00:42:23;99755.53;;;25.62;59.90
74958;BME280;63741;42.624;26.276;2023-07-13T00:47:34;99758.38;;;25.87;59.00
74958;BME280;63741;42.624;26.276;2023-07-13T00:50:02;99752.38;;;25.78;59.43
74958;BME280;63741;42.624;26.276;2023-07-13T00:52:30;99748.16;;;25.89;59.17
74958;BME280;63741;42.624;26.276;2023-07-13T00:54:59;99745.09;;;25.72;59.66
74958;BME280;63741;42.624;26.276;2023-07-13T00:57:26;99742.78;;;25.82;59.18
74958;BME280;63741;42.624;26.276;2023-07-13T00:59:56;99746.75;;;25.73;60.11
74958;BME280;63741;42.624;26.276;2023-07-13T01:02:25;99748.59;;;25.86;59.26
74958;BME280;63741;42.624;26.276;2023-07-13T01:04:52;99743.41;;;25.71;59.52
74958;BME280;63741;42.624;26.276;2023-07-13T01:07:19;99745.91;;;25.73;59.47
74958;BME280;63741;42.624;26.276;2023-07-13T01:09:46;99741.97;;;25.62;59.55
74958;BME280;63741;42.624;26.276;2023-07-13T01:12:13;99739.91;;;25.64;59.58
74958;BME280;63741;42.624;26.276;2023-07-13T01:14:40;99738.84;;;25.65;59.41
74958;BME280;63741;42.624;26.276;2023-07-13T01:17:11;99740.09;;;25.69;59.43
74958;BME280;63741;42.624;26.276;2023-07-13T01:19:41;99734.31;;;25.59;60.11
74958;BME280;63741;42.624;26.276;2023-07-13T01:22:16;99739.75;;;25.45;60.25
74958;BME280;63741;42.624;26.276;2023-07-13T01:24:46;99738.25;;;25.63;59.20
74958;BME280;63741;42.624;26.276;2023-07-13T01:27:17;99738.81;;;25.71;59.36
74958;BME280;63741;42.624;26.276;2023-07-13T01:29:45;99739.03;;;25.70;59.95
74958;BME280;63741;42.624;26.276;2023-07-13T01:32:17;99735.38;;;25.51;60.11
74958;BME280;63741;42.624;26.276;2023-07-13T01:34:53;99738.06;;;25.44;60.34
74958;BME280;63741;42.624;26.276;2023-07-13T01:37:25;99740.59;;;25.39;60.81
74958;BME280;63741;42.624;26.276;2023-07-13T01:39:53;99733.56;;;25.32;61.15
74958;BME280;63741;42.624;26.276;2023-07-13T01:42:20;99736.13;;;25.65;60.20
74958;BME280;63741;42.624;26.276;2023-07-13T01:44:47;99738.28;;;25.50;60.87
74958;BME280;63741;42.624;26.276;2023-07-13T01:47:14;99734.72;;;25.49;60.94
74958;BME280;63741;42.624;26.276;2023-07-13T01:49:41;99732.94;;;25.23;61.58
74958;BME280;63741;42.624;26.276;2023-07-13T01:52:08;99723.56;;;25.26;61.82
74958;BME280;63741;42.624;26.276;2023-07-13T01:54:35;99722.09;;;25.30;61.01
74958;BME280;63741;42.624;26.276;2023-07-13T01:57:02;99726.25;;;25.26;60.81
74958;BME280;63741;42.624;26.276;2023-07-13T01:59:30;99722.94;;;25.17;61.10
74958;BME280;63741;42.624;26.276;2023-07-13T02:01:57;99722.16;;;25.10;60.70
74958;BME280;63741;42.624;26.276;2023-07-13T02:04:24;99724.41;;;25.13;60.46
74958;BME280;63741;42.624;26.276;2023-07-13T02:06:52;99733.34;;;25.13;60.19
74958;BME280;63741;42.624;26.276;2023-07-13T02:09:18;99729.00;;;25.06;60.85
74958;BME280;63741;42.624;26.276;2023-07-13T02:11:45;99732.16;;;25.09;60.61
74958;BME280;63741;42.624;26.276;2023-07-13T02:14:12;99728.56;;;24.95;60.85
74958;BME280;63741;42.624;26.276;2023-07-13T02:16:40;99730.06;;;24.65;61.52
74958;BME280;63741;42.624;26.276;2023-07-13T02:19:08;99729.22;;;24.44;62.36
74958;BME280;63741;42.624;26.276;2023-07-13T02:21:35;99726.09;;;24.67;61.26
74958;BME280;63741;42.624;26.276;2023-07-13T02:24:02;99730.28;;;24.83;61.30
74958;BME280;63741;42.624;26.276;2023-07-13T02:26:29;99721.25;;;24.36;62.99
74958;BME280;63741;42.624;26.276;2023-07-13T02:28:56;99729.22;;;24.71;62.10
74958;BME280;63741;42.624;26.276;2023-07-13T02:31:23;99736.28;;;24.72;62.42
74958;BME280;63741;42.624;26.276;2023-07-13T02:33:53;99732.16;;;24.69;62.20
74958;BME280;63741;42.624;26.276;2023-07-13T02:36:19;99735.88;;;24.62;62.98
74958;BME280;63741;42.624;26.276;2023-07-13T02:38:49;99730.28;;;24.57;63.30
74958;BME280;63741;42.624;26.276;2023-07-13T02:41:16;99729.63;;;24.88;61.84
74958;BME280;63741;42.624;26.276;2023-07-13T02:43:44;99736.28;;;24.99;61.60
74958;BME280;63741;42.624;26.276;2023-07-13T02:46:11;99726.28;;;24.99;61.37
74958;BME280;63741;42.624;26.276;2023-07-13T02:48:39;99720.91;;;24.79;62.26
74958;BME280;63741;42.624;26.276;2023-07-13T02:51:07;99731.09;;;24.70;63.01
74958;BME280;63741;42.624;26.276;2023-07-13T02:53:35;99728.81;;;24.61;63.29
74958;BME280;63741;42.624;26.276;2023-07-13T02:56:04;99737.56;;;24.83;62.67
74958;BME280;63741;42.624;26.276;2023-07-13T02:58:31;99737.75;;;24.88;62.72
74958;BME280;63741;42.624;26.276;2023-07-13T03:00:58;99740.03;;;24.78;62.21
74958;BME280;63741;42.624;26.276;2023-07-13T03:03:26;99735.69;;;24.70;62.32
74958;BME280;63741;42.624;26.276;2023-07-13T03:05:59;99738.16;;;24.85;62.34
74958;BME280;63741;42.624;26.276;2023-07-13T03:08:31;99729.44;;;24.56;63.25
74958;BME280;63741;42.624;26.276;2023-07-13T03:11:04;99728.19;;;24.72;62.39
74958;BME280;63741;42.624;26.276;2023-07-13T03:13:34;99719.22;;;24.45;63.61
74958;BME280;63741;42.624;26.276;2023-07-13T03:16:04;99732.78;;;24.65;62.75
74958;BME280;63741;42.624;26.276;2023-07-13T03:18:33;99731.72;;;24.66;62.22
74958;BME280;63741;42.624;26.276;2023-07-13T03:21:04;99735.69;;;24.70;62.72
74958;BME280;63741;42.624;26.276;2023-07-13T03:23:32;99738.38;;;24.77;62.27
74958;BME280;63741;42.624;26.276;2023-07-13T03:26:14;99741.28;;;24.75;62.28
74958;BME280;63741;42.624;26.276;2023-07-13T03:28:42;99749.81;;;24.85;62.16
74958;BME280;63741;42.624;26.276;2023-07-13T03:31:19;99746.28;;;24.85;62.28
74958;BME280;63741;42.624;26.276;2023-07-13T03:33:47;99746.06;;;24.86;62.20
74958;BME280;63741;42.624;26.276;2023-07-13T03:36:24;99746.91;;;24.80;62.09
74958;BME280;63741;42.624;26.276;2023-07-13T03:38:57;99749.00;;;24.85;61.79
74958;BME280;63741;42.624;26.276;2023-07-13T03:41:32;99744.81;;;24.82;62.08
74958;BME280;63741;42.624;26.276;2023-07-13T03:43:59;99741.91;;;24.64;62.63
74958;BME280;63741;42.624;26.276;2023-07-13T03:46:26;99752.75;;;24.84;62.63
74958;BME280;63741;42.624;26.276;2023-07-13T03:48:54;99748.34;;;25.03;62.13
74958;BME280;63741;42.624;26.276;2023-07-13T03:51:21;99747.75;;;25.01;62.57
74958;BME280;63741;42.624;26.276;2023-07-13T03:53:48;99751.47;;;25.33;61.59
74958;BME280;63741;42.624;26.276;2023-07-13T03:56:18;99752.69;;;25.30;62.24
74958;BME280;63741;42.624;26.276;2023-07-13T03:58:48;99756.69;;;25.21;62.88
74958;BME280;63741;42.624;26.276;2023-07-13T04:01:21;99747.91;;;25.32;62.59
74958;BME280;63741;42.624;26.276;2023-07-13T04:03:49;99757.03;;;25.44;62.57
74958;BME280;63741;42.624;26.276;2023-07-13T04:06:28;99754.13;;;25.46;63.19
74958;BME280;63741;42.624;26.276;2023-07-13T04:08:57;99757.22;;;25.56;62.66
74958;BME280;63741;42.624;26.276;2023-07-13T04:11:27;99758.28;;;25.55;62.91
74958;BME280;63741;42.624;26.276;2023-07-13T04:13:55;99759.47;;;25.66;62.90
74958;BME280;63741;42.624;26.276;2023-07-13T04:16:22;99750.88;;;25.76;62.69
74958;BME280;63741;42.624;26.276;2023-07-13T04:18:50;99745.31;;;25.77;63.10
74958;BME280;63741;42.624;26.276;2023-07-13T04:21:21;99752.31;;;25.91;62.33
74958;BME280;63741;42.624;26.276;2023-07-13T04:23:48;99751.03;;;26.01;62.71
74958;BME280;63741;42.624;26.276;2023-07-13T04:26:15;99758.94;;;26.02;62.75
74958;BME280;63741;42.624;26.276;2023-07-13T04:28:42;99762.38;;;26.23;62.20
74958;BME280;63741;42.624;26.276;2023-07-13T04:31:09;99753.00;;;26.18;62.42
74958;BME280;63741;42.624;26.276;2023-07-13T04:33:37;99759.03;;;26.20;62.73
74958;BME280;63741;42.624;26.276;2023-07-13T04:36:04;99763.78;;;26.25;62.79
74958;BME280;63741;42.624;26.276;2023-07-13T04:38:32;99761.38;;;26.17;63.25
74958;BME280;63741;42.624;26.276;2023-07-13T04:41:01;99760.56;;;26.41;62.26
74958;BME280;63741;42.624;26.276;2023-07-13T04:43:28;99754.47;;;26.21;62.91
74958;BME280;63741;42.624;26.276;2023-07-13T04:45:56;99761.88;;;26.70;61.91
74958;BME280;63741;42.624;26.276;2023-07-13T04:48:24;99768.16;;;26.64;60.55
74958;BME280;63741;42.624;26.276;2023-07-13T04:50:55;99765.25;;;26.66;60.82
74958;BME280;63741;42.624;26.276;2023-07-13T04:53:24;99775.81;;;26.74;61.50
74958;BME280;63741;42.624;26.276;2023-07-13T04:55:51;99780.03;;;26.70;61.33
74958;BME280;63741;42.624;26.276;2023-07-13T04:58:18;99780.56;;;26.79;60.48
74958;BME280;63741;42.624;26.276;2023-07-13T05:00:45;99783.06;;;27.05;58.67
74958;BME280;63741;42.624;26.276;2023-07-13T05:03:12;99783.72;;;27.01;58.97
74958;BME280;63741;42.624;26.276;2023-07-13T05:05:39;99778.59;;;27.17;59.15
74958;BME280;63741;42.624;26.276;2023-07-13T05:08:06;99781.19;;;27.06;58.87
74958;BME280;63741;42.624;26.276;2023-07-13T05:10:35;99792.56;;;27.21;58.63
74958;BME280;63741;42.624;26.276;2023-07-13T05:13:02;99781.97;;;27.13;58.18
74958;BME280;63741;42.624;26.276;2023-07-13T05:15:29;99788.06;;;27.33;57.60
74958;BME280;63741;42.624;26.276;2023-07-13T05:17:56;99786.91;;;27.41;58.39
74958;BME280;63741;42.624;26.276;2023-07-13T05:20:23;99794.88;;;27.42;57.29
74958;BME280;63741;42.624;26.276;2023-07-13T05:22:50;99788.97;;;27.45;57.56
74958;BME280;63741;42.624;26.276;2023-07-13T05:25:17;99788.25;;;27.75;57.64
74958;BME280;63741;42.624;26.276;2023-07-13T05:27:44;99787.19;;;27.76;57.26
74958;BME280;63741;42.624;26.276;2023-07-13T05:30:12;99788.75;;;27.65;58.09
74958;BME280;63741;42.624;26.276;2023-07-13T05:32:39;99780.63;;;27.84;56.69
74958;BME280;63741;42.624;26.276;2023-07-13T05:35:07;99789.00;;;27.82;57.29
74958;BME280;63741;42.624;26.276;2023-07-13T05:37:34;99790.66;;;27.83;57.08
74958;BME280;63741;42.624;26.276;2023-07-13T05:40:01;99778.81;;;27.96;56.38
74958;BME280;63741;42.624;26.276;2023-07-13T05:42:28;99785.78;;;28.22;54.31
74958;BME280;63741;42.624;26.276;2023-07-13T05:44:57;99790.66;;;28.32;54.82
74958;BME280;63741;42.624;26.276;2023-07-13T05:47:24;99786.78;;;28.39;54.42
74958;BME280;63741;42.624;26.276;2023-07-13T05:49:51;99784.56;;;28.48;54.19
74958;BME280;63741;42.624;26.276;2023-07-13T05:52:18;99785.06;;;28.45;53.81
74958;BME280;63741;42.624;26.276;2023-07-13T05:54:45;99790.88;;;28.49;54.12
74958;BME280;63741;42.624;26.276;2023-07-13T05:57:12;99785.19;;;28.62;53.20
74958;BME280;63741;42.624;26.276;2023-07-13T05:59:39;99788.44;;;28.82;53.01
74958;BME280;63741;42.624;26.276;2023-07-13T06:02:09;99791.59;;;29.09;52.05
74958;BME280;63741;42.624;26.276;2023-07-13T06:04:36;99786.47;;;29.01;53.54
74958;BME280;63741;42.624;26.276;2023-07-13T06:07:03;99792.78;;;29.25;51.08
74958;BME280;63741;42.624;26.276;2023-07-13T06:09:30;99795.16;;;29.21;51.35
74958;BME280;63741;42.624;26.276;2023-07-13T06:11:57;99787.31;;;29.37;50.58
74958;BME280;63741;42.624;26.276;2023-07-13T06:14:24;99792.41;;;29.33;50.13
74958;BME280;63741;42.624;26.276;2023-07-13T06:16:51;99794.91;;;29.35;50.62
74958;BME280;63741;42.624;26.276;2023-07-13T06:19:18;99787.66;;;29.52;50.68
74958;BME280;63741;42.624;26.276;2023-07-13T06:21:45;99793.69;;;29.54;49.77
74958;BME280;63741;42.624;26.276;2023-07-13T06:24:12;99792.50;;;29.50;50.00
74958;BME280;63741;42.624;26.276;2023-07-13T06:26:39;99794.41;;;29.50;51.55
74958;BME280;63741;42.624;26.276;2023-07-13T06:29:07;99791.31;;;29.46;49.76
74958;BME280;63741;42.624;26.276;2023-07-13T06:31:34;99787.53;;;29.70;51.13
74958;BME280;63741;42.624;26.276;2023-07-13T06:34:01;99788.53;;;29.93;50.54
74958;BME280;63741;42.624;26.276;2023-07-13T06:36:29;99782.56;;;30.08;49.67
74958;BME280;63741;42.624;26.276;2023-07-13T06:38:56;99783.88;;;30.05;49.14
74958;BME280;63741;42.624;26.276;2023-07-13T06:41:23;99781.47;;;29.80;49.29
74958;BME280;63741;42.624;26.276;2023-07-13T06:43:52;99775.03;;;29.86;49.65
74958;BME280;63741;42.624;26.276;2023-07-13T06:46:22;99777.03;;;29.91;50.70
74958;BME280;63741;42.624;26.276;2023-07-13T06:48:49;99772.84;;;30.00;50.02
74958;BME280;63741;42.624;26.276;2023-07-13T06:51:16;99768.84;;;29.91;50.50
74958;BME280;63741;42.624;26.276;2023-07-13T06:53:43;99766.00;;;30.26;49.65
74958;BME280;63741;42.624;26.276;2023-07-13T06:56:10;99764.28;;;30.20;50.75
74958;BME280;63741;42.624;26.276;2023-07-13T06:58:37;99759.16;;;30.40;49.77
74958;BME280;63741;42.624;26.276;2023-07-13T07:01:04;99760.53;;;30.55;50.26
74958;BME280;63741;42.624;26.276;2023-07-13T07:03:34;99768.31;;;30.63;48.75
74958;BME280;63741;42.624;26.276;2023-07-13T07:06:19;99764.22;;;30.77;49.13
74958;BME280;63741;42.624;26.276;2023-07-13T07:08:46;99767.84;;;30.83;49.52
74958;BME280;63741;42.624;26.276;2023-07-13T07:11:16;99766.84;;;30.89;48.57
74958;BME280;63741;42.624;26.276;2023-07-13T07:13:44;99764.44;;;31.09;47.37
74958;BME280;63741;42.624;26.276;2023-07-13T07:16:11;99771.25;;;30.90;48.72
74958;BME280;63741;42.624;26.276;2023-07-13T07:18:38;99769.84;;;30.87;49.02
74958;BME280;63741;42.624;26.276;2023-07-13T07:21:05;99766.50;;;31.02;49.35
74958;BME280;63741;42.624;26.276;2023-07-13T07:23:32;99755.91;;;31.06;48.05
74958;BME280;63741;42.624;26.276;2023-07-13T07:25:59;99755.75;;;31.12;48.98
74958;BME280;63741;42.624;26.276;2023-07-13T07:28:26;99765.41;;;31.20;48.44
74958;BME280;63741;42.624;26.276;2023-07-13T07:31:12;99769.28;;;31.24;48.59
74958;BME280;63741;42.624;26.276;2023-07-13T07:33:42;99770.38;;;31.40;48.02
74958;BME280;63741;42.624;26.276;2023-07-13T07:36:09;99770.31;;;31.35;48.28
74958;BME280;63741;42.624;26.276;2023-07-13T07:38:39;99772.81;;;31.58;46.36
74958;BME280;63741;42.624;26.276;2023-07-13T07:41:06;99764.16;;;31.44;47.89
74958;BME280;63741;42.624;26.276;2023-07-13T07:43:36;99763.41;;;31.71;48.27
74958;BME280;63741;42.624;26.276;2023-07-13T07:46:05;99768.81;;;31.88;46.94
74958;BME280;63741;42.624;26.276;2023-07-13T07:48:33;99769.97;;;31.92;47.01
74958;BME280;63741;42.624;26.276;2023-07-13T07:51:00;99760.53;;;32.05;46.93
74958;BME280;63741;42.624;26.276;2023-07-13T07:53:27;99760.47;;;32.00;47.20
74958;BME280;63741;42.624;26.276;2023-07-13T07:55:56;99768.03;;;32.14;47.15
74958;BME280;63741;42.624;26.276;2023-07-13T07:58:43;99761.34;;;32.05;46.94
74958;BME280;63741;42.624;26.276;2023-07-13T08:01:13;99761.00;;;32.24;46.13
74958;BME280;63741;42.624;26.276;2023-07-13T08:03:43;99757.97;;;32.20;46.17
74958;BME280;63741;42.624;26.276;2023-07-13T08:06:13;99763.44;;;32.42;45.85
74958;BME280;63741;42.624;26.276;2023-07-13T08:09:00;99759.59;;;32.43;45.24
74958;BME280;63741;42.624;26.276;2023-07-13T08:11:28;99748.03;;;32.68;44.71
74958;BME280;63741;42.624;26.276;2023-07-13T08:13:57;99752.59;;;32.57;46.04
74958;BME280;63741;42.624;26.276;2023-07-13T08:16:26;99751.38;;;32.75;44.57
74958;BME280;63741;42.624;26.276;2023-07-13T08:18:53;99748.16;;;32.83;44.67
74958;BME280;63741;42.624;26.276;2023-07-13T08:21:20;99757.09;;;32.68;44.74
74958;BME280;63741;42.624;26.276;2023-07-13T08:23:47;99747.84;;;32.80;43.99
74958;BME280;63741;42.624;26.276;2023-07-13T08:26:14;99742.28;;;33.02;44.07
74958;BME280;63741;42.624;26.276;2023-07-13T08:28:41;99740.66;;;33.06;43.59
74958;BME280;63741;42.624;26.276;2023-07-13T08:31:09;99743.00;;;33.29;42.82
74958;BME280;63741;42.624;26.276;2023-07-13T08:33:37;99751.34;;;33.44;41.96
74958;BME280;63741;42.624;26.276;2023-07-13T08:36:06;99748.34;;;33.51;41.90
74958;BME280;63741;42.624;26.276;2023-07-13T08:38:33;99739.84;;;33.53;42.34
74958;BME280;63741;42.624;26.276;2023-07-13T08:41:04;99738.25;;;33.62;42.28
74958;BME280;63741;42.624;26.276;2023-07-13T08:43:37;99744.09;;;33.86;40.52
74958;BME280;63741;42.624;26.276;2023-07-13T08:46:25;99739.72;;;33.90;41.10
74958;BME280;63741;42.624;26.276;2023-07-13T08:49:03;99747.19;;;34.05;40.73
74958;BME280;63741;42.624;26.276;2023-07-13T08:51:50;99752.41;;;34.01;40.50
74958;BME280;63741;42.624;26.276;2023-07-13T08:54:33;99742.72;;;33.83;39.84
74958;BME280;63741;42.624;26.276;2023-07-13T08:57:08;99740.53;;;33.85;41.00
74958;BME280;63741;42.624;26.276;2023-07-13T08:59:37;99738.16;;;34.09;41.93
74958;BME280;63741;42.624;26.276;2023-07-13T09:02:19;99740.06;;;34.04;40.36
74958;BME280;63741;42.624;26.276;2023-07-13T09:05:04;99739.25;;;34.18;39.99
74958;BME280;63741;42.624;26.276;2023-07-13T09:10:36;99730.78;;;34.45;40.11
74958;BME280;63741;42.624;26.276;2023-07-13T09:13:20;99737.09;;;34.46;38.96
74958;BME280;63741;42.624;26.276;2023-07-13T09:15:50;99744.53;;;34.56;38.17
74958;BME280;63741;42.624;26.276;2023-07-13T09:20:56;99722.84;;;34.85;37.36
74958;BME280;63741;42.624;26.276;2023-07-13T09:23:27;99723.13;;;34.99;37.51
74958;BME280;63741;42.624;26.276;2023-07-13T09:26:04;99722.00;;;35.05;36.87
74958;BME280;63741;42.624;26.276;2023-07-13T09:28:39;99723.59;;;35.26;37.23
74958;BME280;63741;42.624;26.276;2023-07-13T09:31:16;99721.91;;;35.51;37.74
74958;BME280;63741;42.624;26.276;2023-07-13T09:33:45;99715.84;;;35.43;37.55
74958;BME280;63741;42.624;26.276;2023-07-13T09:36:36;99719.16;;;35.51;36.56
74958;BME280;63741;42.624;26.276;2023-07-13T09:41:47;99712.28;;;35.38;35.36
74958;BME280;63741;42.624;26.276;2023-07-13T09:44:18;99705.41;;;35.51;36.04
74958;BME280;63741;42.624;26.276;2023-07-13T09:46:55;99701.56;;;35.31;35.13
74958;BME280;63741;42.624;26.276;2023-07-13T09:49:26;99696.63;;;35.33;34.77
74958;BME280;63741;42.624;26.276;2023-07-13T09:52:00;99697.84;;;35.77;34.19
74958;BME280;63741;42.624;26.276;2023-07-13T09:54:29;99698.84;;;35.91;33.05
74958;BME280;63741;42.624;26.276;2023-07-13T09:56:57;99683.16;;;35.91;33.29
74958;BME280;63741;42.624;26.276;2023-07-13T09:59:30;99689.59;;;36.16;33.36
74958;BME280;63741;42.624;26.276;2023-07-13T10:01:57;99673.97;;;36.06;33.02
74958;BME280;63741;42.624;26.276;2023-07-13T10:04:32;99676.56;;;36.32;33.08
74958;BME280;63741;42.624;26.276;2023-07-13T10:07:08;99669.31;;;36.41;33.05
74958;BME280;63741;42.624;26.276;2023-07-13T10:09:55;99671.13;;;36.56;32.77
74958;BME280;63741;42.624;26.276;2023-07-13T10:12:23;99661.66;;;36.67;33.03
74958;BME280;63741;42.624;26.276;2023-07-13T10:14:54;99668.56;;;36.64;32.42
74958;BME280;63741;42.624;26.276;2023-07-13T10:17:43;99657.78;;;36.34;31.21
74958;BME280;63741;42.624;26.276;2023-07-13T10:20:11;99664.16;;;36.29;32.24
74958;BME280;63741;42.624;26.276;2023-07-13T10:25:46;99652.94;;;36.84;31.97
74958;BME280;63741;42.624;26.276;2023-07-13T10:30:52;99647.78;;;37.01;30.98
74958;BME280;63741;42.624;26.276;2023-07-13T10:33:20;99643.56;;;37.09;30.82
74958;BME280;63741;42.624;26.276;2023-07-13T10:35:49;99635.59;;;37.07;30.71
74958;BME280;63741;42.624;26.276;2023-07-13T10:38:21;99631.16;;;37.11;30.21
74958;BME280;63741;42.624;26.276;2023-07-13T10:41:01;99626.00;;;36.76;30.93
74958;BME280;63741;42.624;26.276;2023-07-13T10:43:35;99623.66;;;36.88;31.28
74958;BME280;63741;42.624;26.276;2023-07-13T10:46:11;99630.34;;;37.11;30.43
74958;BME280;63741;42.624;26.276;2023-07-13T10:48:42;99633.19;;;37.25;31.19
74958;BME280;63741;42.624;26.276;2023-07-13T10:51:13;99628.19;;;37.27;30.41
74958;BME280;63741;42.624;26.276;2023-07-13T10:53:41;99640.63;;;37.48;31.12
74958;BME280;63741;42.624;26.276;2023-07-13T10:56:19;99631.53;;;37.66;30.75
74958;BME280;63741;42.624;26.276;2023-07-13T11:01:57;99645.19;;;37.77;28.93
74958;BME280;63741;42.624;26.276;2023-07-13T11:04:26;99645.47;;;37.75;29.02
74958;BME280;63741;42.624;26.276;2023-07-13T11:07:10;99635.09;;;37.67;27.87
74958;BME280;63741;42.624;26.276;2023-07-13T11:09:40;99640.78;;;37.94;27.57
74958;BME280;63741;42.624;26.276;2023-07-13T11:15:10;99635.25;;;38.13;28.22
74958;BME280;63741;42.624;26.276;2023-07-13T11:17:51;99629.75;;;38.13;28.28
74958;BME280;63741;42.624;26.276;2023-07-13T11:20:23;99624.00;;;38.10;28.32
74958;BME280;63741;42.624;26.276;2023-07-13T11:25:39;99608.28;;;38.24;28.34
74958;BME280;63741;42.624;26.276;2023-07-13T11:33:28;99607.31;;;38.15;27.33
74958;BME280;63741;42.624;26.276;2023-07-13T11:36:14;99609.16;;;38.38;26.79
74958;BME280;63741;42.624;26.276;2023-07-13T11:38:43;99608.88;;;38.40;27.05
74958;BME280;63741;42.624;26.276;2023-07-13T11:41:31;99600.06;;;38.65;28.83
74958;BME280;63741;42.624;26.276;2023-07-13T11:46:49;99605.22;;;39.13;27.35
74958;BME280;63741;42.624;26.276;2023-07-13T11:49:23;99607.25;;;38.66;25.99
74958;BME280;63741;42.624;26.276;2023-07-13T11:51:51;99602.59;;;38.81;25.57
74958;BME280;63741;42.624;26.276;2023-07-13T11:54:27;99607.53;;;38.37;25.68
74958;BME280;63741;42.624;26.276;2023-07-13T11:57:45;99608.41;;;38.79;26.05
74958;BME280;63741;42.624;26.276;2023-07-13T11:59:44;99608.00;;;39.00;25.31
74958;BME280;63741;42.624;26.276;2023-07-13T12:02:18;99603.41;;;38.95;24.74
74958;BME280;63741;42.624;26.276;2023-07-13T12:04:51;99600.84;;;38.85;25.72
74958;BME280;63741;42.624;26.276;2023-07-13T12:07:19;99594.53;;;38.65;25.09
74958;BME280;63741;42.624;26.276;2023-07-13T12:09:46;99595.91;;;38.96;25.32
74958;BME280;63741;42.624;26.276;2023-07-13T12:12:17;99586.47;;;39.10;24.18
74958;BME280;63741;42.624;26.276;2023-07-13T12:14:45;99580.00;;;39.15;25.17
74958;BME280;63741;42.624;26.276;2023-07-13T12:17:16;99577.44;;;39.32;24.76
74958;BME280;63741;42.624;26.276;2023-07-13T12:19:45;99576.47;;;39.51;24.00
74958;BME280;63741;42.624;26.276;2023-07-13T12:22:16;99567.44;;;39.09;24.58
74958;BME280;63741;42.624;26.276;2023-07-13T12:24:47;99568.81;;;39.48;25.15
74958;BME280;63741;42.624;26.276;2023-07-13T12:27:24;99556.03;;;39.74;25.76
74958;BME280;63741;42.624;26.276;2023-07-13T12:30:00;99554.13;;;40.06;25.77
74958;BME280;63741;42.624;26.276;2023-07-13T12:32:27;99556.31;;;39.95;24.47
74958;BME280;63741;42.624;26.276;2023-07-13T12:35:14;99554.28;;;39.28;25.51
74958;BME280;63741;42.624;26.276;2023-07-13T12:37:48;99550.44;;;39.52;24.80
74958;BME280;63741;42.624;26.276;2023-07-13T12:40:16;99540.44;;;39.28;23.49
74958;BME280;63741;42.624;26.276;2023-07-13T12:42:50;99537.84;;;39.46;24.81
74958;BME280;63741;42.624;26.276;2023-07-13T12:45:25;99540.00;;;39.49;24.05
74958;BME280;63741;42.624;26.276;2023-07-13T12:47:53;99525.66;;;39.91;24.58
74958;BME280;63741;42.624;26.276;2023-07-13T12:50:23;99521.38;;;39.63;23.74
74958;BME280;63741;42.624;26.276;2023-07-13T12:52:53;99521.13;;;39.73;24.86
74958;BME280;63741;42.624;26.276;2023-07-13T12:55:21;99514.47;;;39.97;24.23
74958;BME280;63741;42.624;26.276;2023-07-13T12:57:53;99512.00;;;39.95;23.35
74958;BME280;63741;42.624;26.276;2023-07-13T13:00:23;99506.44;;;39.95;22.88
74958;BME280;63741;42.624;26.276;2023-07-13T13:02:56;99510.84;;;39.96;22.78
74958;BME280;63741;42.624;26.276;2023-07-13T13:05:44;99510.94;;;39.82;23.74
74958;BME280;63741;42.624;26.276;2023-07-13T13:08:12;99514.84;;;39.81;23.48
74958;BME280;63741;42.624;26.276;2023-07-13T13:10:40;99515.22;;;39.88;23.12
74958;BME280;63741;42.624;26.276;2023-07-13T13:13:07;99515.44;;;39.70;22.54
74958;BME280;63741;42.624;26.276;2023-07-13T13:15:35;99513.59;;;39.65;23.04
74958;BME280;63741;42.624;26.276;2023-07-13T13:18:16;99514.19;;;39.62;22.42
74958;BME280;63741;42.624;26.276;2023-07-13T13:20:44;99499.50;;;39.75;22.46
74958;BME280;63741;42.624;26.276;2023-07-13T13:23:14;99498.31;;;39.67;23.52
74958;BME280;63741;42.624;26.276;2023-07-13T13:25:46;99495.72;;;39.71;22.93
74958;BME280;63741;42.624;26.276;2023-07-13T13:28:18;99494.06;;;39.92;23.04
74958;BME280;63741;42.624;26.276;2023-07-13T13:30:48;99491.00;;;39.72;22.81
74958;BME280;63741;42.624;26.276;2023-07-13T13:33:17;99482.81;;;39.66;22.79
74958;BME280;63741;42.624;26.276;2023-07-13T13:35:44;99477.59;;;39.96;23.00
74958;BME280;63741;42.624;26.276;2023-07-13T13:38:17;99483.59;;;40.12;23.44